sensor_id;sensor_type;location;lat;lon;timestamp;temperature;humidity
41922;DHT22;27609;51.002;5.354;2023-06-10T00:01:24;21.20;99.90
41922;DHT22;27609;51.002;5.354;2023-06-10T00:03:51;21.10;99.90
41922;DHT22;27609;51.002;5.354;2023-06-10T00:06:17;21.10;99.90
41922;DHT22;27609;51.002;5.354;2023-06-10T00:08:43;21.10;99.90
41922;DHT22;27609;51.002;5.354;2023-06-10T00:11:09;21.10;99.90
41922;DHT22;27609;51.002;5.354;2023-06-10T00:13:35;21.10;99.90
41922;DHT22;27609;51.002;5.354;2023-06-10T00:16:02;21.20;99.90
41922;DHT22;27609;51.002;5.354;2023-06-10T00:18:28;21.10;99.90
41922;DHT22;27609;51.002;5.354;2023-06-10T00:20:57;21.00;99.90
41922;DHT22;27609;51.002;5.354;2023-06-10T00:23:28;20.90;99.90
41922;DHT22;27609;51.002;5.354;2023-06-10T00:25:58;20.90;99.90
41922;DHT22;27609;51.002;5.354;2023-06-10T00:28:25;20.80;99.90
41922;DHT22;27609;51.002;5.354;2023-06-10T00:30:51;20.80;99.90
41922;DHT22;27609;51.002;5.354;2023-06-10T00:33:16;20.70;99.90
41922;DHT22;27609;51.002;5.354;2023-06-10T00:35:42;20.70;99.90
41922;DHT22;27609;51.002;5.354;2023-06-10T00:38:08;20.70;99.90
41922;DHT22;27609;51.002;5.354;2023-06-10T00:40:39;20.60;99.90
41922;DHT22;27609;51.002;5.354;2023-06-10T00:43:05;20.60;99.90
41922;DHT22;27609;51.002;5.354;2023-06-10T00:45:31;20.50;99.90
41922;DHT22;27609;51.002;5.354;2023-06-10T00:47:57;20.50;99.90
41922;DHT22;27609;51.002;5.354;2023-06-10T00:50:23;20.50;99.90
41922;DHT22;27609;51.002;5.354;2023-06-10T00:52:49;20.50;99.90
41922;DHT22;27609;51.002;5.354;2023-06-10T00:55:17;20.50;99.90
41922;DHT22;27609;51.002;5.354;2023-06-10T00:57:45;20.50;99.90
41922;DHT22;27609;51.002;5.354;2023-06-10T01:00:12;20.40;99.90
41922;DHT22;27609;51.002;5.354;2023-06-10T01:02:38;20.40;99.90
41922;DHT22;27609;51.002;5.354;2023-06-10T01:05:05;20.50;99.90
41922;DHT22;27609;51.002;5.354;2023-06-10T01:07:34;20.50;99.90
41922;DHT22;27609;51.002;5.354;2023-06-10T01:12:43;20.40;99.90
41922;DHT22;27609;51.002;5.354;2023-06-10T01:15:17;20.40;99.90
41922;DHT22;27609;51.002;5.354;2023-06-10T01:18:00;20.40;99.90
41922;DHT22;27609;51.002;5.354;2023-06-10T01:20:28;20.30;99.90
41922;DHT22;27609;51.002;5.354;2023-06-10T01:22:55;20.30;99.90
41922;DHT22;27609;51.002;5.354;2023-06-10T01:25:21;20.20;99.90
41922;DHT22;27609;51.002;5.354;2023-06-10T01:33:11;20.20;99.90
41922;DHT22;27609;51.002;5.354;2023-06-10T01:35:37;20.10;99.90
41922;DHT22;27609;51.002;5.354;2023-06-10T01:38:05;20.10;99.90
41922;DHT22;27609;51.002;5.354;2023-06-10T01:40:32;20.10;99.90
41922;DHT22;27609;51.002;5.354;2023-06-10T01:42:58;20.00;99.90
41922;DHT22;27609;51.002;5.354;2023-06-10T01:45:23;20.00;99.90
41922;DHT22;27609;51.002;5.354;2023-06-10T01:47:49;19.80;99.90
41922;DHT22;27609;51.002;5.354;2023-06-10T01:50:15;19.80;99.90
41922;DHT22;27609;51.002;5.354;2023-06-10T01:52:42;19.80;99.90
41922;DHT22;27609;51.002;5.354;2023-06-10T01:55:07;19.90;99.90
41922;DHT22;27609;51.002;5.354;2023-06-10T01:57:33;19.90;99.90
41922;DHT22;27609;51.002;5.354;2023-06-10T01:59:59;19.80;99.90
41922;DHT22;27609;51.002;5.354;2023-06-10T02:02:24;19.80;99.90
41922;DHT22;27609;51.002;5.354;2023-06-10T02:04:50;19.70;99.90
41922;DHT22;27609;51.002;5.354;2023-06-10T02:07:16;19.60;99.90
41922;DHT22;27609;51.002;5.354;2023-06-10T02:09:41;19.60;99.90
41922;DHT22;27609;51.002;5.354;2023-06-10T02:12:07;19.60;99.90
41922;DHT22;27609;51.002;5.354;2023-06-10T02:14:34;19.50;99.90
41922;DHT22;27609;51.002;5.354;2023-06-10T02:16:59;19.50;99.90
41922;DHT22;27609;51.002;5.354;2023-06-10T02:19:25;19.50;99.90
41922;DHT22;27609;51.002;5.354;2023-06-10T02:21:52;19.40;99.90
41922;DHT22;27609;51.002;5.354;2023-06-10T02:24:18;19.50;99.90
41922;DHT22;27609;51.002;5.354;2023-06-10T02:26:44;19.40;99.90
41922;DHT22;27609;51.002;5.354;2023-06-10T02:29:10;19.40;99.90
41922;DHT22;27609;51.002;5.354;2023-06-10T02:31:36;19.40;99.90
41922;DHT22;27609;51.002;5.354;2023-06-10T02:34:03;19.40;99.90
41922;DHT22;27609;51.002;5.354;2023-06-10T02:36:29;19.30;99.90
41922;DHT22;27609;51.002;5.354;2023-06-10T02:38:55;19.30;99.90
41922;DHT22;27609;51.002;5.354;2023-06-10T02:41:21;19.30;99.90
41922;DHT22;27609;51.002;5.354;2023-06-10T02:43:47;19.40;99.90
41922;DHT22;27609;51.002;5.354;2023-06-10T02:46:13;19.30;99.90
41922;DHT22;27609;51.002;5.354;2023-06-10T02:48:43;19.30;99.90
41922;DHT22;27609;51.002;5.354;2023-06-10T02:51:11;19.40;99.90
41922;DHT22;27609;51.002;5.354;2023-06-10T02:53:37;19.30;99.90
41922;DHT22;27609;51.002;5.354;2023-06-10T02:56:03;19.30;99.90
41922;DHT22;27609;51.002;5.354;2023-06-10T02:58:29;19.20;99.90
41922;DHT22;27609;51.002;5.354;2023-06-10T03:00:55;19.10;99.90
41922;DHT22;27609;51.002;5.354;2023-06-10T03:03:20;19.00;99.90
41922;DHT22;27609;51.002;5.354;2023-06-10T03:05:48;18.90;99.90
41922;DHT22;27609;51.002;5.354;2023-06-10T03:08:14;18.90;99.90
41922;DHT22;27609;51.002;5.354;2023-06-10T03:10:39;18.90;99.90
41922;DHT22;27609;51.002;5.354;2023-06-10T03:13:05;19.00;99.90
41922;DHT22;27609;51.002;5.354;2023-06-10T03:15:31;19.00;99.90
41922;DHT22;27609;51.002;5.354;2023-06-10T03:18:01;18.90;99.90
41922;DHT22;27609;51.002;5.354;2023-06-10T03:20:27;19.10;99.90
41922;DHT22;27609;51.002;5.354;2023-06-10T03:22:54;19.00;99.90
41922;DHT22;27609;51.002;5.354;2023-06-10T03:25:20;18.90;99.90
41922;DHT22;27609;51.002;5.354;2023-06-10T03:27:46;18.80;99.90
41922;DHT22;27609;51.002;5.354;2023-06-10T03:30:13;18.80;99.90
41922;DHT22;27609;51.002;5.354;2023-06-10T03:32:39;18.80;99.90
41922;DHT22;27609;51.002;5.354;2023-06-10T03:35:05;18.80;99.90
41922;DHT22;27609;51.002;5.354;2023-06-10T03:37:32;18.80;99.90
41922;DHT22;27609;51.002;5.354;2023-06-10T03:39:57;18.90;99.90
41922;DHT22;27609;51.002;5.354;2023-06-10T03:42:23;18.90;99.90
41922;DHT22;27609;51.002;5.354;2023-06-10T03:44:49;18.90;99.90
41922;DHT22;27609;51.002;5.354;2023-06-10T03:47:14;19.00;99.90
41922;DHT22;27609;51.002;5.354;2023-06-10T03:49:40;19.10;99.90
41922;DHT22;27609;51.002;5.354;2023-06-10T03:52:06;19.00;99.90
41922;DHT22;27609;51.002;5.354;2023-06-10T03:54:32;18.90;99.90
41922;DHT22;27609;51.002;5.354;2023-06-10T03:56:59;18.90;99.90
41922;DHT22;27609;51.002;5.354;2023-06-10T03:59:25;18.80;99.90
41922;DHT22;27609;51.002;5.354;2023-06-10T04:01:51;18.90;99.90
41922;DHT22;27609;51.002;5.354;2023-06-10T04:04:17;18.90;99.90
41922;DHT22;27609;51.002;5.354;2023-06-10T04:06:43;19.00;99.90
41922;DHT22;27609;51.002;5.354;2023-06-10T04:09:12;19.00;99.90
41922;DHT22;27609;51.002;5.354;2023-06-10T04:11:38;19.00;99.90
41922;DHT22;27609;51.002;5.354;2023-06-10T04:14:03;19.00;99.90
41922;DHT22;27609;51.002;5.354;2023-06-10T04:16:29;18.90;99.90
41922;DHT22;27609;51.002;5.354;2023-06-10T04:18:55;18.90;99.90
41922;DHT22;27609;51.002;5.354;2023-06-10T04:21:20;19.10;99.90
41922;DHT22;27609;51.002;5.354;2023-06-10T04:23:47;19.10;99.90
41922;DHT22;27609;51.002;5.354;2023-06-10T04:26:12;19.10;99.90
41922;DHT22;27609;51.002;5.354;2023-06-10T04:28:38;19.10;99.90
41922;DHT22;27609;51.002;5.354;2023-06-10T04:31:04;19.00;99.90
41922;DHT22;27609;51.002;5.354;2023-06-10T04:33:33;19.10;99.90
41922;DHT22;27609;51.002;5.354;2023-06-10T04:35:58;19.00;99.90
41922;DHT22;27609;51.002;5.354;2023-06-10T04:38:24;19.10;99.90
41922;DHT22;27609;51.002;5.354;2023-06-10T04:40:50;19.10;99.90
41922;DHT22;27609;51.002;5.354;2023-06-10T04:43:15;19.20;99.90
41922;DHT22;27609;51.002;5.354;2023-06-10T04:45:41;19.30;99.90
41922;DHT22;27609;51.002;5.354;2023-06-10T04:48:10;19.40;99.90
41922;DHT22;27609;51.002;5.354;2023-06-10T04:50:36;19.50;99.90
41922;DHT22;27609;51.002;5.354;2023-06-10T04:53:02;19.50;99.90
41922;DHT22;27609;51.002;5.354;2023-06-10T04:55:28;19.60;99.90
41922;DHT22;27609;51.002;5.354;2023-06-10T04:57:54;19.60;99.90
41922;DHT22;27609;51.002;5.354;2023-06-10T05:00:20;19.60;99.90
41922;DHT22;27609;51.002;5.354;2023-06-10T05:02:46;19.70;99.90
41922;DHT22;27609;51.002;5.354;2023-06-10T05:05:16;19.70;99.90
41922;DHT22;27609;51.002;5.354;2023-06-10T05:07:42;19.90;99.90
41922;DHT22;27609;51.002;5.354;2023-06-10T05:10:08;20.00;99.90
41922;DHT22;27609;51.002;5.354;2023-06-10T05:12:34;20.20;99.90
41922;DHT22;27609;51.002;5.354;2023-06-10T05:14:59;20.20;99.90
41922;DHT22;27609;51.002;5.354;2023-06-10T05:17:25;20.30;99.90
41922;DHT22;27609;51.002;5.354;2023-06-10T05:19:51;20.40;99.90
41922;DHT22;27609;51.002;5.354;2023-06-10T05:22:17;20.50;99.90
41922;DHT22;27609;51.002;5.354;2023-06-10T05:24:44;20.60;99.90
41922;DHT22;27609;51.002;5.354;2023-06-10T05:27:10;20.60;99.90
41922;DHT22;27609;51.002;5.354;2023-06-10T05:29:35;20.60;99.90
41922;DHT22;27609;51.002;5.354;2023-06-10T05:32:01;20.60;99.90
41922;DHT22;27609;51.002;5.354;2023-06-10T05:34:31;20.80;99.90
41922;DHT22;27609;51.002;5.354;2023-06-10T05:36:57;20.80;99.90
41922;DHT22;27609;51.002;5.354;2023-06-10T05:39:23;21.00;99.90
41922;DHT22;27609;51.002;5.354;2023-06-10T05:41:49;21.10;99.90
41922;DHT22;27609;51.002;5.354;2023-06-10T05:44:14;21.30;99.90
41922;DHT22;27609;51.002;5.354;2023-06-10T05:46:40;21.40;99.90
41922;DHT22;27609;51.002;5.354;2023-06-10T05:49:06;21.60;99.90
41922;DHT22;27609;51.002;5.354;2023-06-10T05:51:32;21.70;99.90
41922;DHT22;27609;51.002;5.354;2023-06-10T05:53:57;21.70;99.90
41922;DHT22;27609;51.002;5.354;2023-06-10T05:56:23;22.00;99.90
41922;DHT22;27609;51.002;5.354;2023-06-10T05:58:49;22.20;99.90
41922;DHT22;27609;51.002;5.354;2023-06-10T06:01:15;22.60;99.90
41922;DHT22;27609;51.002;5.354;2023-06-10T06:03:41;22.60;99.90
41922;DHT22;27609;51.002;5.354;2023-06-10T06:06:06;22.70;99.90
41922;DHT22;27609;51.002;5.354;2023-06-10T06:08:32;22.50;99.90
41922;DHT22;27609;51.002;5.354;2023-06-10T06:10:58;22.40;99.90
41922;DHT22;27609;51.002;5.354;2023-06-10T06:13:23;22.70;99.90
41922;DHT22;27609;51.002;5.354;2023-06-10T06:15:50;23.20;99.90
41922;DHT22;27609;51.002;5.354;2023-06-10T06:18:15;23.50;99.90
41922;DHT22;27609;51.002;5.354;2023-06-10T06:20:41;24.20;99.90
41922;DHT22;27609;51.002;5.354;2023-06-10T06:23:07;25.10;99.90
41922;DHT22;27609;51.002;5.354;2023-06-10T06:25:35;26.40;99.90
41922;DHT22;27609;51.002;5.354;2023-06-10T06:28:01;26.80;99.90
41922;DHT22;27609;51.002;5.354;2023-06-10T06:30:27;27.60;99.90
41922;DHT22;27609;51.002;5.354;2023-06-10T06:32:53;28.20;99.90
41922;DHT22;27609;51.002;5.354;2023-06-10T06:35:19;29.00;99.90
41922;DHT22;27609;51.002;5.354;2023-06-10T06:37:44;29.20;99.70
41922;DHT22;27609;51.002;5.354;2023-06-10T06:40:10;28.70;99.90
41922;DHT22;27609;51.002;5.354;2023-06-10T06:42:36;28.10;99.40
41922;DHT22;27609;51.002;5.354;2023-06-10T06:45:02;28.20;99.90
41922;DHT22;27609;51.002;5.354;2023-06-10T06:47:27;27.70;99.90
41922;DHT22;27609;51.002;5.354;2023-06-10T06:49:53;28.80;99.90
41922;DHT22;27609;51.002;5.354;2023-06-10T06:52:19;29.50;97.60
41922;DHT22;27609;51.002;5.354;2023-06-10T06:54:44;29.60;98.00
41922;DHT22;27609;51.002;5.354;2023-06-10T06:57:10;29.50;96.90
41922;DHT22;27609;51.002;5.354;2023-06-10T06:59:36;30.00;97.20
41922;DHT22;27609;51.002;5.354;2023-06-10T07:02:03;29.60;97.50
41922;DHT22;27609;51.002;5.354;2023-06-10T07:04:28;29.70;96.10
41922;DHT22;27609;51.002;5.354;2023-06-10T07:06:54;30.20;95.40
41922;DHT22;27609;51.002;5.354;2023-06-10T07:09:20;29.70;96.00
41922;DHT22;27609;51.002;5.354;2023-06-10T07:11:45;29.90;95.40
41922;DHT22;27609;51.002;5.354;2023-06-10T07:14:11;28.70;95.60
41922;DHT22;27609;51.002;5.354;2023-06-10T07:16:37;28.40;96.40
41922;DHT22;27609;51.002;5.354;2023-06-10T07:19:02;28.40;96.50
41922;DHT22;27609;51.002;5.354;2023-06-10T07:21:30;28.70;97.10
41922;DHT22;27609;51.002;5.354;2023-06-10T07:23:55;28.90;95.50
41922;DHT22;27609;51.002;5.354;2023-06-10T07:26:24;28.10;96.90
41922;DHT22;27609;51.002;5.354;2023-06-10T07:28:51;28.90;95.60
41922;DHT22;27609;51.002;5.354;2023-06-10T07:31:17;28.50;95.20
41922;DHT22;27609;51.002;5.354;2023-06-10T07:33:42;28.90;95.10
41922;DHT22;27609;51.002;5.354;2023-06-10T07:36:09;28.40;96.30
41922;DHT22;27609;51.002;5.354;2023-06-10T07:38:35;29.00;95.30
41922;DHT22;27609;51.002;5.354;2023-06-10T07:41:00;30.20;95.60
41922;DHT22;27609;51.002;5.354;2023-06-10T07:43:26;31.80;93.30
41922;DHT22;27609;51.002;5.354;2023-06-10T07:45:52;32.00;93.10
41922;DHT22;27609;51.002;5.354;2023-06-10T07:48:18;33.20;91.10
41922;DHT22;27609;51.002;5.354;2023-06-10T07:50:44;33.30;90.00
41922;DHT22;27609;51.002;5.354;2023-06-10T07:53:10;33.30;89.40
41922;DHT22;27609;51.002;5.354;2023-06-10T07:55:35;34.70;88.90
41922;DHT22;27609;51.002;5.354;2023-06-10T07:58:01;36.30;83.40
41922;DHT22;27609;51.002;5.354;2023-06-10T08:00:27;36.20;79.20
41922;DHT22;27609;51.002;5.354;2023-06-10T08:02:52;33.80;83.90
41922;DHT22;27609;51.002;5.354;2023-06-10T08:05:18;32.70;85.40
41922;DHT22;27609;51.002;5.354;2023-06-10T08:07:44;32.50;87.00
41922;DHT22;27609;51.002;5.354;2023-06-10T08:10:10;33.10;84.00
41922;DHT22;27609;51.002;5.354;2023-06-10T08:12:36;34.00;83.30
41922;DHT22;27609;51.002;5.354;2023-06-10T08:15:02;34.40;81.70
41922;DHT22;27609;51.002;5.354;2023-06-10T08:17:31;34.60;79.90
41922;DHT22;27609;51.002;5.354;2023-06-10T08:19:57;34.50;82.00
41922;DHT22;27609;51.002;5.354;2023-06-10T08:22:22;35.50;79.00
41922;DHT22;27609;51.002;5.354;2023-06-10T08:24:48;36.60;78.00
41922;DHT22;27609;51.002;5.354;2023-06-10T08:27:14;36.50;75.40
41922;DHT22;27609;51.002;5.354;2023-06-10T08:29:41;36.80;76.50
41922;DHT22;27609;51.002;5.354;2023-06-10T08:32:06;36.80;75.40
41922;DHT22;27609;51.002;5.354;2023-06-10T08:34:34;37.10;74.10
41922;DHT22;27609;51.002;5.354;2023-06-10T08:37:01;37.80;73.70
41922;DHT22;27609;51.002;5.354;2023-06-10T08:39:26;38.90;71.80
41922;DHT22;27609;51.002;5.354;2023-06-10T08:44:30;39.60;68.70
41922;DHT22;27609;51.002;5.354;2023-06-10T08:46:59;37.90;69.40
41922;DHT22;27609;51.002;5.354;2023-06-10T08:49:26;38.10;68.20
41922;DHT22;27609;51.002;5.354;2023-06-10T08:51:59;38.10;69.50
41922;DHT22;27609;51.002;5.354;2023-06-10T08:54:28;39.40;66.30
41922;DHT22;27609;51.002;5.354;2023-06-10T08:56:57;40.90;64.50
41922;DHT22;27609;51.002;5.354;2023-06-10T08:59:25;39.70;64.80
41922;DHT22;27609;51.002;5.354;2023-06-10T09:01:52;41.20;61.80
41922;DHT22;27609;51.002;5.354;2023-06-10T09:04:18;41.70;61.80
41922;DHT22;27609;51.002;5.354;2023-06-10T09:06:45;39.00;60.90
41922;DHT22;27609;51.002;5.354;2023-06-10T09:09:12;39.30;62.10
41922;DHT22;27609;51.002;5.354;2023-06-10T09:11:38;38.30;63.80
41922;DHT22;27609;51.002;5.354;2023-06-10T09:14:04;37.80;64.20
41922;DHT22;27609;51.002;5.354;2023-06-10T09:16:30;37.50;63.60
41922;DHT22;27609;51.002;5.354;2023-06-10T09:18:56;37.30;64.20
41922;DHT22;27609;51.002;5.354;2023-06-10T09:21:25;36.90;62.70
41922;DHT22;27609;51.002;5.354;2023-06-10T09:23:51;35.60;64.90
41922;DHT22;27609;51.002;5.354;2023-06-10T09:26:17;36.90;66.50
41922;DHT22;27609;51.002;5.354;2023-06-10T09:28:44;39.40;62.00
41922;DHT22;27609;51.002;5.354;2023-06-10T09:31:13;39.90;60.70
41922;DHT22;27609;51.002;5.354;2023-06-10T09:33:40;40.50;61.80
41922;DHT22;27609;51.002;5.354;2023-06-10T09:36:06;40.80;59.40
41922;DHT22;27609;51.002;5.354;2023-06-10T09:38:33;42.10;57.90
41922;DHT22;27609;51.002;5.354;2023-06-10T09:40:59;41.10;59.20
41922;DHT22;27609;51.002;5.354;2023-06-10T09:43:39;41.20;59.00
41922;DHT22;27609;51.002;5.354;2023-06-10T09:46:05;39.90;58.90
41922;DHT22;27609;51.002;5.354;2023-06-10T09:48:35;40.60;58.10
41922;DHT22;27609;51.002;5.354;2023-06-10T09:51:01;42.90;56.50
41922;DHT22;27609;51.002;5.354;2023-06-10T09:53:27;41.80;56.40
41922;DHT22;27609;51.002;5.354;2023-06-10T09:55:53;40.90;55.80
41922;DHT22;27609;51.002;5.354;2023-06-10T09:58:39;41.60;54.80
41922;DHT22;27609;51.002;5.354;2023-06-10T10:01:14;41.40;54.80
41922;DHT22;27609;51.002;5.354;2023-06-10T10:03:48;40.50;54.80
41922;DHT22;27609;51.002;5.354;2023-06-10T10:06:15;40.20;54.40
41922;DHT22;27609;51.002;5.354;2023-06-10T10:08:41;41.10;54.30
41922;DHT22;27609;51.002;5.354;2023-06-10T10:11:08;41.80;53.80
41922;DHT22;27609;51.002;5.354;2023-06-10T10:13:35;40.50;54.50
41922;DHT22;27609;51.002;5.354;2023-06-10T10:16:05;39.70;54.50
41922;DHT22;27609;51.002;5.354;2023-06-10T10:18:32;39.80;55.60
41922;DHT22;27609;51.002;5.354;2023-06-10T10:21:01;39.60;53.70
41922;DHT22;27609;51.002;5.354;2023-06-10T10:23:35;39.90;54.90
41922;DHT22;27609;51.002;5.354;2023-06-10T10:26:07;40.00;53.80
41922;DHT22;27609;51.002;5.354;2023-06-10T10:28:41;37.90;54.20
41922;DHT22;27609;51.002;5.354;2023-06-10T10:31:12;38.00;54.60
41922;DHT22;27609;51.002;5.354;2023-06-10T10:33:42;39.30;54.50
41922;DHT22;27609;51.002;5.354;2023-06-10T10:36:11;40.40;52.70
41922;DHT22;27609;51.002;5.354;2023-06-10T10:38:37;39.40;53.30
41922;DHT22;27609;51.002;5.354;2023-06-10T10:41:04;37.00;56.10
41922;DHT22;27609;51.002;5.354;2023-06-10T10:43:30;37.90;55.60
41922;DHT22;27609;51.002;5.354;2023-06-10T10:46:08;40.50;54.20
41922;DHT22;27609;51.002;5.354;2023-06-10T10:48:38;41.60;51.50
41922;DHT22;27609;51.002;5.354;2023-06-10T10:51:04;38.60;52.80
41922;DHT22;27609;51.002;5.354;2023-06-10T10:53:30;39.10;53.70
41922;DHT22;27609;51.002;5.354;2023-06-10T10:56:06;41.10;51.50
41922;DHT22;27609;51.002;5.354;2023-06-10T10:58:33;42.20;50.70
41922;DHT22;27609;51.002;5.354;2023-06-10T11:00:59;40.60;50.90
41922;DHT22;27609;51.002;5.354;2023-06-10T11:03:29;38.00;53.10
41922;DHT22;27609;51.002;5.354;2023-06-10T11:05:57;37.60;53.40
41922;DHT22;27609;51.002;5.354;2023-06-10T11:10:58;39.30;52.40
41922;DHT22;27609;51.002;5.354;2023-06-10T11:13:26;38.20;53.40
41922;DHT22;27609;51.002;5.354;2023-06-10T11:15:52;38.00;54.10
41922;DHT22;27609;51.002;5.354;2023-06-10T11:18:58;38.50;52.90
41922;DHT22;27609;51.002;5.354;2023-06-10T11:21:17;38.40;53.50
41922;DHT22;27609;51.002;5.354;2023-06-10T11:23:42;40.60;51.10
41922;DHT22;27609;51.002;5.354;2023-06-10T11:31:27;39.30;51.20
41922;DHT22;27609;51.002;5.354;2023-06-10T11:33:55;38.00;51.20
41922;DHT22;27609;51.002;5.354;2023-06-10T11:36:24;38.90;51.40
41922;DHT22;27609;51.002;5.354;2023-06-10T11:38:55;40.80;49.90
41922;DHT22;27609;51.002;5.354;2023-06-10T11:41:20;39.70;50.60
41922;DHT22;27609;51.002;5.354;2023-06-10T11:43:46;40.80;51.90
41922;DHT22;27609;51.002;5.354;2023-06-10T11:46:15;38.80;50.00
41922;DHT22;27609;51.002;5.354;2023-06-10T11:49:00;37.00;52.10
41922;DHT22;27609;51.002;5.354;2023-06-10T11:51:37;38.50;52.20
41922;DHT22;27609;51.002;5.354;2023-06-10T11:54:04;37.70;51.10
41922;DHT22;27609;51.002;5.354;2023-06-10T11:56:31;36.50;52.10
41922;DHT22;27609;51.002;5.354;2023-06-10T11:59:05;35.90;52.90
41922;DHT22;27609;51.002;5.354;2023-06-10T12:01:34;38.10;53.00
41922;DHT22;27609;51.002;5.354;2023-06-10T12:04:13;37.20;50.50
41922;DHT22;27609;51.002;5.354;2023-06-10T12:06:44;35.20;51.30
41922;DHT22;27609;51.002;5.354;2023-06-10T12:09:28;35.30;52.80
41922;DHT22;27609;51.002;5.354;2023-06-10T12:12:01;36.10;51.60
41922;DHT22;27609;51.002;5.354;2023-06-10T12:14:56;37.20;48.80
41922;DHT22;27609;51.002;5.354;2023-06-10T12:19:58;37.00;50.40
41922;DHT22;27609;51.002;5.354;2023-06-10T12:22:25;38.30;50.00
41922;DHT22;27609;51.002;5.354;2023-06-10T12:25:04;38.80;50.10
41922;DHT22;27609;51.002;5.354;2023-06-10T12:27:30;37.70;49.30
41922;DHT22;27609;51.002;5.354;2023-06-10T12:29:58;36.10;51.00
41922;DHT22;27609;51.002;5.354;2023-06-10T12:32:43;37.00;50.40
41922;DHT22;27609;51.002;5.354;2023-06-10T12:35:15;35.60;51.40
41922;DHT22;27609;51.002;5.354;2023-06-10T12:37:43;34.90;51.10
41922;DHT22;27609;51.002;5.354;2023-06-10T12:40:29;35.20;52.60
41922;DHT22;27609;51.002;5.354;2023-06-10T12:42:57;34.80;52.10
41922;DHT22;27609;51.002;5.354;2023-06-10T12:45:33;34.50;53.20
41922;DHT22;27609;51.002;5.354;2023-06-10T12:48:22;34.80;52.60
41922;DHT22;27609;51.002;5.354;2023-06-10T12:53:18;39.10;50.20
41922;DHT22;27609;51.002;5.354;2023-06-10T12:55:45;37.90;50.60
41922;DHT22;27609;51.002;5.354;2023-06-10T12:58:11;36.60;53.00
41922;DHT22;27609;51.002;5.354;2023-06-10T13:00:37;37.00;51.70
41922;DHT22;27609;51.002;5.354;2023-06-10T13:03:03;36.90;51.90
41922;DHT22;27609;51.002;5.354;2023-06-10T13:05:31;38.00;51.20
41922;DHT22;27609;51.002;5.354;2023-06-10T13:07:57;38.60;51.70
41922;DHT22;27609;51.002;5.354;2023-06-10T13:10:24;36.40;52.70
41922;DHT22;27609;51.002;5.354;2023-06-10T13:12:50;36.70;53.40
41922;DHT22;27609;51.002;5.354;2023-06-10T13:15:16;37.00;50.80
41922;DHT22;27609;51.002;5.354;2023-06-10T13:17:43;36.50;51.90
41922;DHT22;27609;51.002;5.354;2023-06-10T13:20:10;36.20;51.50
41922;DHT22;27609;51.002;5.354;2023-06-10T13:22:36;36.40;51.80
41922;DHT22;27609;51.002;5.354;2023-06-10T13:25:03;37.00;50.10
41922;DHT22;27609;51.002;5.354;2023-06-10T13:27:29;37.80;51.30
41922;DHT22;27609;51.002;5.354;2023-06-10T13:29:55;37.10;50.40
41922;DHT22;27609;51.002;5.354;2023-06-10T13:32:20;36.40;50.70
41922;DHT22;27609;51.002;5.354;2023-06-10T13:34:46;35.80;50.70
41922;DHT22;27609;51.002;5.354;2023-06-10T13:37:12;35.60;51.50
41922;DHT22;27609;51.002;5.354;2023-06-10T13:39:38;35.70;52.00
41922;DHT22;27609;51.002;5.354;2023-06-10T13:42:05;36.10;51.10
41922;DHT22;27609;51.002;5.354;2023-06-10T13:44:31;36.20;51.80
41922;DHT22;27609;51.002;5.354;2023-06-10T13:46:59;35.30;52.50
41922;DHT22;27609;51.002;5.354;2023-06-10T13:49:25;35.10;52.00
41922;DHT22;27609;51.002;5.354;2023-06-10T13:51:50;34.90;53.30
41922;DHT22;27609;51.002;5.354;2023-06-10T13:54:16;35.60;52.40
41922;DHT22;27609;51.002;5.354;2023-06-10T13:56:41;35.80;52.70
41922;DHT22;27609;51.002;5.354;2023-06-10T13:59:07;36.20;52.30
41922;DHT22;27609;51.002;5.354;2023-06-10T14:01:33;36.20;51.20
41922;DHT22;27609;51.002;5.354;2023-06-10T14:04:00;35.60;51.00
41922;DHT22;27609;51.002;5.354;2023-06-10T14:06:26;34.80;52.50
41922;DHT22;27609;51.002;5.354;2023-06-10T14:08:52;35.00;52.40
41922;DHT22;27609;51.002;5.354;2023-06-10T14:11:20;35.10;52.80
41922;DHT22;27609;51.002;5.354;2023-06-10T14:13:46;35.80;53.20
41922;DHT22;27609;51.002;5.354;2023-06-10T14:16:12;35.20;52.90
41922;DHT22;27609;51.002;5.354;2023-06-10T14:18:38;34.20;53.40
41922;DHT22;27609;51.002;5.354;2023-06-10T14:21:03;34.50;54.20
41922;DHT22;27609;51.002;5.354;2023-06-10T14:23:29;34.70;55.20
41922;DHT22;27609;51.002;5.354;2023-06-10T14:25:55;34.80;54.90
41922;DHT22;27609;51.002;5.354;2023-06-10T14:28:21;35.10;53.60
41922;DHT22;27609;51.002;5.354;2023-06-10T14:30:46;35.10;52.90
41922;DHT22;27609;51.002;5.354;2023-06-10T14:33:12;35.00;53.70
41922;DHT22;27609;51.002;5.354;2023-06-10T14:35:38;35.00;53.40
41922;DHT22;27609;51.002;5.354;2023-06-10T14:38:03;34.80;54.00
41922;DHT22;27609;51.002;5.354;2023-06-10T14:40:29;35.20;54.10
41922;DHT22;27609;51.002;5.354;2023-06-10T14:42:55;34.50;52.80
41922;DHT22;27609;51.002;5.354;2023-06-10T14:45:21;33.50;53.60
41922;DHT22;27609;51.002;5.354;2023-06-10T14:47:47;33.50;54.10
41922;DHT22;27609;51.002;5.354;2023-06-10T14:50:13;33.30;54.60
41922;DHT22;27609;51.002;5.354;2023-06-10T14:52:40;33.40;54.40
41922;DHT22;27609;51.002;5.354;2023-06-10T14:55:06;33.00;54.70
41922;DHT22;27609;51.002;5.354;2023-06-10T14:57:31;33.70;54.80
41922;DHT22;27609;51.002;5.354;2023-06-10T14:59:57;34.30;54.80
41922;DHT22;27609;51.002;5.354;2023-06-10T15:02:23;34.80;54.60
41922;DHT22;27609;51.002;5.354;2023-06-10T15:04:49;34.70;54.30
41922;DHT22;27609;51.002;5.354;2023-06-10T15:07:15;34.10;55.20
41922;DHT22;27609;51.002;5.354;2023-06-10T15:09:41;33.80;56.00
41922;DHT22;27609;51.002;5.354;2023-06-10T15:12:08;34.00;55.40
41922;DHT22;27609;51.002;5.354;2023-06-10T15:14:33;34.10;55.30
41922;DHT22;27609;51.002;5.354;2023-06-10T15:16:59;34.00;56.10
41922;DHT22;27609;51.002;5.354;2023-06-10T15:19:26;34.00;55.20
41922;DHT22;27609;51.002;5.354;2023-06-10T15:21:52;33.40;56.30
41922;DHT22;27609;51.002;5.354;2023-06-10T15:24:18;33.40;57.30
41922;DHT22;27609;51.002;5.354;2023-06-10T15:26:44;33.50;55.60
41922;DHT22;27609;51.002;5.354;2023-06-10T15:29:10;33.70;55.60
41922;DHT22;27609;51.002;5.354;2023-06-10T15:31:35;34.00;57.00
41922;DHT22;27609;51.002;5.354;2023-06-10T15:34:01;34.10;55.30
41922;DHT22;27609;51.002;5.354;2023-06-10T15:36:27;34.10;54.60
41922;DHT22;27609;51.002;5.354;2023-06-10T15:38:53;33.80;55.50
41922;DHT22;27609;51.002;5.354;2023-06-10T15:41:19;33.40;57.10
41922;DHT22;27609;51.002;5.354;2023-06-10T15:43:45;33.50;56.10
41922;DHT22;27609;51.002;5.354;2023-06-10T15:46:12;33.40;56.30
41922;DHT22;27609;51.002;5.354;2023-06-10T15:48:37;33.50;57.00
41922;DHT22;27609;51.002;5.354;2023-06-10T15:51:03;33.30;57.00
41922;DHT22;27609;51.002;5.354;2023-06-10T15:53:28;33.50;57.20